sensor_id;sensor_type;location;lat;lon;timestamp;P1;durP1;ratioP1;P2;durP2;ratioP2
19645;SDS011;9971;52.446;13.452;2024-03-22T00:02:26;4.40;;;4.10;;
19645;SDS011;9971;52.446;13.452;2024-03-22T00:07:28;4.10;;;3.80;;
19645;SDS011;9971;52.446;13.452;2024-03-22T00:12:31;3.93;;;3.63;;
19645;SDS011;9971;52.446;13.452;2024-03-22T00:17:33;4.67;;;4.28;;
19645;SDS011;9971;52.446;13.452;2024-03-22T00:22:35;4.15;;;3.75;;
19645;SDS011;9971;52.446;13.452;2024-03-22T00:27:38;4.22;;;3.92;;
19645;SDS011;9971;52.446;13.452;2024-03-22T00:32:41;4.35;;;4.05;;
19645;SDS011;9971;52.446;13.452;2024-03-22T00:37:43;4.83;;;4.42;;
19645;SDS011;9971;52.446;13.452;2024-03-22T00:42:45;4.40;;;4.10;;
19645;SDS011;9971;52.446;13.452;2024-03-22T00:47:48;4.22;;;3.92;;
19645;SDS011;9971;52.446;13.452;2024-03-22T00:52:51;4.03;;;3.72;;
19645;SDS011;9971;52.446;13.452;2024-03-22T00:57:53;4.30;;;4.00;;
19645;SDS011;9971;52.446;13.452;2024-03-22T01:02:55;4.62;;;4.22;;
19645;SDS011;9971;52.446;13.452;2024-03-22T01:07:58;3.60;;;3.37;;
19645;SDS011;9971;52.446;13.452;2024-03-22T01:13:00;4.45;;;4.15;;
19645;SDS011;9971;52.446;13.452;2024-03-22T01:18:03;4.50;;;4.10;;
19645;SDS011;9971;52.446;13.452;2024-03-22T01:23:05;4.85;;;4.45;;
19645;SDS011;9971;52.446;13.452;2024-03-22T01:28:08;5.17;;;4.78;;
19645;SDS011;9971;52.446;13.452;2024-03-22T01:33:10;4.75;;;4.37;;
19645;SDS011;9971;52.446;13.452;2024-03-22T01:38:13;4.70;;;4.40;;
19645;SDS011;9971;52.446;13.452;2024-03-22T01:43:15;4.97;;;4.58;;
19645;SDS011;9971;52.446;13.452;2024-03-22T01:48:18;5.45;;;5.05;;
19645;SDS011;9971;52.446;13.452;2024-03-22T01:53:20;5.97;;;5.47;;
19645;SDS011;9971;52.446;13.452;2024-03-22T01:58:22;5.57;;;5.10;;
19645;SDS011;9971;52.446;13.452;2024-03-22T02:03:24;5.80;;;5.37;;
19645;SDS011;9971;52.446;13.452;2024-03-22T02:08:27;5.60;;;5.20;;
19645;SDS011;9971;52.446;13.452;2024-03-22T02:13:29;6.28;;;5.78;;
19645;SDS011;9971;52.446;13.452;2024-03-22T02:18:32;7.05;;;6.45;;
19645;SDS011;9971;52.446;13.452;2024-03-22T02:23:35;6.08;;;5.58;;
19645;SDS011;9971;52.446;13.452;2024-03-22T02:28:36;6.40;;;5.90;;
19645;SDS011;9971;52.446;13.452;2024-03-22T02:33:39;6.33;;;5.83;;
19645;SDS011;9971;52.446;13.452;2024-03-22T02:38:41;6.35;;;5.85;;
19645;SDS011;9971;52.446;13.452;2024-03-22T02:43:44;6.75;;;6.15;;
19645;SDS011;9971;52.446;13.452;2024-03-22T02:48:46;7.87;;;7.17;;
19645;SDS011;9971;52.446;13.452;2024-03-22T02:53:49;6.42;;;5.92;;
19645;SDS011;9971;52.446;13.452;2024-03-22T02:58:51;8.13;;;7.33;;
19645;SDS011;9971;52.446;13.452;2024-03-22T03:03:53;7.22;;;6.62;;
19645;SDS011;9971;52.446;13.452;2024-03-22T03:08:55;7.40;;;6.83;;
19645;SDS011;9971;52.446;13.452;2024-03-22T03:13:58;5.97;;;5.47;;
19645;SDS011;9971;52.446;13.452;2024-03-22T03:19:00;7.22;;;6.58;;
19645;SDS011;9971;52.446;13.452;2024-03-22T03:24:02;7.25;;;6.65;;
19645;SDS011;9971;52.446;13.452;2024-03-22T03:29:05;6.53;;;6.00;;
19645;SDS011;9971;52.446;13.452;2024-03-22T03:34:08;6.85;;;6.30;;
19645;SDS011;9971;52.446;13.452;2024-03-22T03:39:10;6.03;;;5.53;;
19645;SDS011;9971;52.446;13.452;2024-03-22T03:44:12;5.45;;;4.95;;
19645;SDS011;9971;52.446;13.452;2024-03-22T03:49:15;5.85;;;5.45;;
19645;SDS011;9971;52.446;13.452;2024-03-22T03:54:17;5.55;;;5.15;;
19645;SDS011;9971;52.446;13.452;2024-03-22T03:59:20;5.75;;;5.25;;
19645;SDS011;9971;52.446;13.452;2024-03-22T04:04:22;6.28;;;5.78;;
19645;SDS011;9971;52.446;13.452;2024-03-22T04:09:25;6.10;;;5.60;;
19645;SDS011;9971;52.446;13.452;2024-03-22T04:14:27;6.37;;;5.87;;
19645;SDS011;9971;52.446;13.452;2024-03-22T04:19:30;5.97;;;5.42;;
19645;SDS011;9971;52.446;13.452;2024-03-22T04:24:33;6.17;;;5.67;;
19645;SDS011;9971;52.446;13.452;2024-03-22T04:29:37;6.50;;;5.90;;
19645;SDS011;9971;52.446;13.452;2024-03-22T04:34:42;5.42;;;4.95;;
19645;SDS011;9971;52.446;13.452;2024-03-22T04:39:45;5.78;;;5.28;;
19645;SDS011;9971;52.446;13.452;2024-03-22T04:44:47;6.20;;;5.70;;
19645;SDS011;9971;52.446;13.452;2024-03-22T04:49:50;6.60;;;6.05;;
19645;SDS011;9971;52.446;13.452;2024-03-22T04:54:52;6.83;;;6.33;;
19645;SDS011;9971;52.446;13.452;2024-03-22T04:59:55;4.65;;;4.25;;
19645;SDS011;9971;52.446;13.452;2024-03-22T05:05:01;3.35;;;3.15;;
19645;SDS011;9971;52.446;13.452;2024-03-22T05:10:06;3.40;;;3.13;;
19645;SDS011;9971;52.446;13.452;2024-03-22T05:15:08;3.02;;;2.83;;
19645;SDS011;9971;52.446;13.452;2024-03-22T05:20:11;6.12;;;5.62;;
19645;SDS011;9971;52.446;13.452;2024-03-22T05:25:13;5.87;;;5.37;;
19645;SDS011;9971;52.446;13.452;2024-03-22T05:30:16;6.70;;;6.10;;
19645;SDS011;9971;52.446;13.452;2024-03-22T05:35:18;5.70;;;5.20;;
19645;SDS011;9971;52.446;13.452;2024-03-22T05:40:20;5.62;;;5.12;;
19645;SDS011;9971;52.446;13.452;2024-03-22T05:45:23;6.33;;;5.83;;
19645;SDS011;9971;52.446;13.452;2024-03-22T05:50:25;5.72;;;5.22;;
19645;SDS011;9971;52.446;13.452;2024-03-22T05:55:27;5.65;;;5.15;;
19645;SDS011;9971;52.446;13.452;2024-03-22T06:00:30;6.00;;;5.50;;
19645;SDS011;9971;52.446;13.452;2024-03-22T06:05:33;4.85;;;4.45;;
19645;SDS011;9971;52.446;13.452;2024-03-22T06:10:34;6.07;;;5.57;;
19645;SDS011;9971;52.446;13.452;2024-03-22T06:15:37;6.65;;;6.08;;
19645;SDS011;9971;52.446;13.452;2024-03-22T06:20:39;6.70;;;6.05;;
19645;SDS011;9971;52.446;13.452;2024-03-22T06:25:42;6.35;;;5.75;;
19645;SDS011;9971;52.446;13.452;2024-03-22T06:30:44;6.73;;;6.13;;
19645;SDS011;9971;52.446;13.452;2024-03-22T06:35:46;6.10;;;5.60;;
19645;SDS011;9971;52.446;13.452;2024-03-22T06:40:48;6.77;;;5.83;;
19645;SDS011;9971;52.446;13.452;2024-03-22T06:45:50;5.40;;;5.00;;
19645;SDS011;9971;52.446;13.452;2024-03-22T06:50:53;6.30;;;5.70;;
19645;SDS011;9971;52.446;13.452;2024-03-22T06:55:55;7.30;;;6.70;;
19645;SDS011;9971;52.446;13.452;2024-03-22T07:00:58;6.50;;;5.90;;
19645;SDS011;9971;52.446;13.452;2024-03-22T07:06:00;7.55;;;6.85;;
19645;SDS011;9971;52.446;13.452;2024-03-22T07:11:05;6.87;;;6.27;;
19645;SDS011;9971;52.446;13.452;2024-03-22T07:16:06;6.50;;;5.90;;
19645;SDS011;9971;52.446;13.452;2024-03-22T07:21:09;6.50;;;5.90;;
19645;SDS011;9971;52.446;13.452;2024-03-22T07:26:11;5.97;;;5.47;;
19645;SDS011;9971;52.446;13.452;2024-03-22T07:31:13;5.80;;;5.28;;
19645;SDS011;9971;52.446;13.452;2024-03-22T07:36:16;8.50;;;7.80;;
19645;SDS011;9971;52.446;13.452;2024-03-22T07:41:18;8.65;;;7.85;;
19645;SDS011;9971;52.446;13.452;2024-03-22T07:46:21;9.60;;;8.68;;
19645;SDS011;9971;52.446;13.452;2024-03-22T07:51:23;7.65;;;7.03;;
19645;SDS011;9971;52.446;13.452;2024-03-22T07:56:26;6.78;;;6.17;;
19645;SDS011;9971;52.446;13.452;2024-03-22T08:01:28;6.05;;;5.55;;
19645;SDS011;9971;52.446;13.452;2024-03-22T08:06:30;6.65;;;6.05;;
19645;SDS011;9971;52.446;13.452;2024-03-22T08:11:33;7.43;;;6.83;;
19645;SDS011;9971;52.446;13.452;2024-03-22T08:16:35;7.25;;;6.53;;
19645;SDS011;9971;52.446;13.452;2024-03-22T08:21:38;6.20;;;5.70;;
19645;SDS011;9971;52.446;13.452;2024-03-22T08:26:40;8.45;;;7.65;;
19645;SDS011;9971;52.446;13.452;2024-03-22T08:31:42;8.78;;;7.17;;
19645;SDS011;9971;52.446;13.452;2024-03-22T08:36:45;8.55;;;7.78;;
19645;SDS011;9971;52.446;13.452;2024-03-22T08:41:47;5.97;;;5.40;;
19645;SDS011;9971;52.446;13.452;2024-03-22T08:46:50;7.40;;;6.70;;
19645;SDS011;9971;52.446;13.452;2024-03-22T08:51:52;5.42;;;5.00;;
19645;SDS011;9971;52.446;13.452;2024-03-22T08:56:54;9.43;;;8.50;;
19645;SDS011;9971;52.446;13.452;2024-03-22T09:01:57;7.75;;;7.12;;
19645;SDS011;9971;52.446;13.452;2024-03-22T09:07:00;6.78;;;6.17;;
19645;SDS011;9971;52.446;13.452;2024-03-22T09:12:02;6.08;;;5.58;;
19645;SDS011;9971;52.446;13.452;2024-03-22T09:17:05;7.00;;;6.30;;
19645;SDS011;9971;52.446;13.452;2024-03-22T09:22:07;6.58;;;5.97;;
19645;SDS011;9971;52.446;13.452;2024-03-22T09:27:13;9.20;;;8.30;;
19645;SDS011;9971;52.446;13.452;2024-03-22T09:32:16;9.90;;;8.10;;
19645;SDS011;9971;52.446;13.452;2024-03-22T09:37:18;7.12;;;6.42;;
19645;SDS011;9971;52.446;13.452;2024-03-22T09:42:21;8.68;;;7.83;;
19645;SDS011;9971;52.446;13.452;2024-03-22T09:47:23;7.75;;;7.05;;
19645;SDS011;9971;52.446;13.452;2024-03-22T09:52:25;5.70;;;5.20;;
19645;SDS011;9971;52.446;13.452;2024-03-22T09:57:27;5.85;;;5.25;;
19645;SDS011;9971;52.446;13.452;2024-03-22T10:02:29;7.27;;;6.37;;
19645;SDS011;9971;52.446;13.452;2024-03-22T10:07:32;7.85;;;7.10;;
19645;SDS011;9971;52.446;13.452;2024-03-22T10:12:34;7.80;;;7.10;;
19645;SDS011;9971;52.446;13.452;2024-03-22T10:17:36;6.83;;;6.08;;
19645;SDS011;9971;52.446;13.452;2024-03-22T10:22:41;8.15;;;7.45;;
19645;SDS011;9971;52.446;13.452;2024-03-22T10:27:44;6.77;;;6.20;;
19645;SDS011;9971;52.446;13.452;2024-03-22T10:32:46;10.30;;;8.60;;
19645;SDS011;9971;52.446;13.452;2024-03-22T10:37:48;7.57;;;6.87;;
19645;SDS011;9971;52.446;13.452;2024-03-22T10:42:51;8.03;;;7.33;;
19645;SDS011;9971;52.446;13.452;2024-03-22T10:47:53;8.58;;;7.78;;
19645;SDS011;9971;52.446;13.452;2024-03-22T10:52:57;5.85;;;5.25;;
19645;SDS011;9971;52.446;13.452;2024-03-22T10:57:58;9.58;;;8.78;;
19645;SDS011;9971;52.446;13.452;2024-03-22T11:03:02;6.20;;;5.70;;
19645;SDS011;9971;52.446;13.452;2024-03-22T11:08:05;8.87;;;7.97;;
19645;SDS011;9971;52.446;13.452;2024-03-22T11:13:07;7.72;;;6.92;;
19645;SDS011;9971;52.446;13.452;2024-03-22T11:18:09;8.43;;;7.63;;
19645;SDS011;9971;52.446;13.452;2024-03-22T11:23:11;8.18;;;7.22;;
19645;SDS011;9971;52.446;13.452;2024-03-22T11:28:13;9.53;;;8.53;;
19645;SDS011;9971;52.446;13.452;2024-03-22T11:33:16;8.90;;;8.00;;
19645;SDS011;9971;52.446;13.452;2024-03-22T11:38:18;8.13;;;6.78;;
19645;SDS011;9971;52.446;13.452;2024-03-22T11:43:21;8.00;;;6.92;;
19645;SDS011;9971;52.446;13.452;2024-03-22T11:48:23;7.83;;;7.03;;
19645;SDS011;9971;52.446;13.452;2024-03-22T11:53:26;6.58;;;5.97;;
19645;SDS011;9971;52.446;13.452;2024-03-22T11:58:28;7.80;;;6.97;;
19645;SDS011;9971;52.446;13.452;2024-03-22T12:03:31;6.53;;;5.97;;
19645;SDS011;9971;52.446;13.452;2024-03-22T12:08:33;8.43;;;7.60;;
19645;SDS011;9971;52.446;13.452;2024-03-22T12:13:36;7.20;;;6.50;;
19645;SDS011;9971;52.446;13.452;2024-03-22T12:18:38;7.93;;;7.23;;
19645;SDS011;9971;52.446;13.452;2024-03-22T12:23:41;8.58;;;7.78;;
19645;SDS011;9971;52.446;13.452;2024-03-22T12:28:43;8.48;;;7.67;;
19645;SDS011;9971;52.446;13.452;2024-03-22T12:33:46;9.20;;;7.92;;
19645;SDS011;9971;52.446;13.452;2024-03-22T12:38:48;9.38;;;8.45;;
19645;SDS011;9971;52.446;13.452;2024-03-22T12:43:50;9.17;;;8.17;;
19645;SDS011;9971;52.446;13.452;2024-03-22T12:48:53;9.28;;;8.38;;
19645;SDS011;9971;52.446;13.452;2024-03-22T12:53:54;10.07;;;8.00;;
19645;SDS011;9971;52.446;13.452;2024-03-22T12:58:57;7.97;;;7.08;;
19645;SDS011;9971;52.446;13.452;2024-03-22T13:03:59;8.18;;;7.37;;
19645;SDS011;9971;52.446;13.452;2024-03-22T13:09:02;7.17;;;6.47;;
19645;SDS011;9971;52.446;13.452;2024-03-22T13:14:04;9.15;;;8.20;;
19645;SDS011;9971;52.446;13.452;2024-03-22T13:19:06;7.08;;;6.47;;
19645;SDS011;9971;52.446;13.452;2024-03-22T13:24:09;8.35;;;7.25;;
19645;SDS011;9971;52.446;13.452;2024-03-22T13:29:11;7.92;;;6.65;;
19645;SDS011;9971;52.446;13.452;2024-03-22T13:34:13;7.03;;;6.30;;
19645;SDS011;9971;52.446;13.452;2024-03-22T13:39:16;7.33;;;5.75;;
19645;SDS011;9971;52.446;13.452;2024-03-22T13:44:18;7.42;;;6.72;;
19645;SDS011;9971;52.446;13.452;2024-03-22T13:49:21;7.12;;;6.42;;
19645;SDS011;9971;52.446;13.452;2024-03-22T13:54:23;8.05;;;6.65;;
19645;SDS011;9971;52.446;13.452;2024-03-22T13:59:29;7.55;;;6.80;;
19645;SDS011;9971;52.446;13.452;2024-03-22T14:04:32;7.75;;;7.05;;
19645;SDS011;9971;52.446;13.452;2024-03-22T14:09:34;6.35;;;5.83;;
19645;SDS011;9971;52.446;13.452;2024-03-22T14:14:36;5.47;;;4.97;;
19645;SDS011;9971;52.446;13.452;2024-03-22T14:19:39;2.83;;;2.62;;
19645;SDS011;9971;52.446;13.452;2024-03-22T14:24:41;5.45;;;4.45;;
19645;SDS011;9971;52.446;13.452;2024-03-22T14:29:44;7.25;;;5.47;;
19645;SDS011;9971;52.446;13.452;2024-03-22T14:34:46;3.92;;;3.60;;
19645;SDS011;9971;52.446;13.452;2024-03-22T14:39:48;4.58;;;4.17;;
19645;SDS011;9971;52.446;13.452;2024-03-22T14:44:51;8.75;;;7.40;;
19645;SDS011;9971;52.446;13.452;2024-03-22T14:49:53;5.58;;;4.92;;
19645;SDS011;9971;52.446;13.452;2024-03-22T14:54:56;8.08;;;7.33;;
19645;SDS011;9971;52.446;13.452;2024-03-22T14:59:58;7.80;;;7.10;;
19645;SDS011;9971;52.446;13.452;2024-03-22T15:05:00;7.78;;;7.00;;
19645;SDS011;9971;52.446;13.452;2024-03-22T15:10:03;8.00;;;7.20;;
19645;SDS011;9971;52.446;13.452;2024-03-22T15:15:05;8.08;;;6.87;;
19645;SDS011;9971;52.446;13.452;2024-03-22T15:20:08;5.55;;;4.72;;
19645;SDS011;9971;52.446;13.452;2024-03-22T15:25:11;7.90;;;7.17;;
19645;SDS011;9971;52.446;13.452;2024-03-22T15:30:13;7.70;;;6.87;;
19645;SDS011;9971;52.446;13.452;2024-03-22T15:35:15;8.78;;;7.80;;
19645;SDS011;9971;52.446;13.452;2024-03-22T15:40:18;5.58;;;5.08;;
19645;SDS011;9971;52.446;13.452;2024-03-22T15:45:20;7.47;;;6.78;;
19645;SDS011;9971;52.446;13.452;2024-03-22T15:50:23;8.53;;;7.65;;
19645;SDS011;9971;52.446;13.452;2024-03-22T15:55:25;9.50;;;8.60;;
19645;SDS011;9971;52.446;13.452;2024-03-22T16:00:27;9.90;;;8.58;;
19645;SDS011;9971;52.446;13.452;2024-03-22T16:05:30;9.20;;;8.38;;
19645;SDS011;9971;52.446;13.452;2024-03-22T16:10:32;8.70;;;7.80;;
19645;SDS011;9971;52.446;13.452;2024-03-22T16:15:35;8.10;;;7.17;;
19645;SDS011;9971;52.446;13.452;2024-03-22T16:20:37;8.05;;;7.25;;
19645;SDS011;9971;52.446;13.452;2024-03-22T16:25:40;8.60;;;7.73;;
19645;SDS011;9971;52.446;13.452;2024-03-22T16:30:42;8.20;;;7.47;;
19645;SDS011;9971;52.446;13.452;2024-03-22T16:35:45;7.50;;;6.83;;
19645;SDS011;9971;52.446;13.452;2024-03-22T16:40:47;7.85;;;7.15;;
19645;SDS011;9971;52.446;13.452;2024-03-22T16:45:50;8.53;;;7.73;;
19645;SDS011;9971;52.446;13.452;2024-03-22T16:50:52;7.35;;;6.67;;
19645;SDS011;9971;52.446;13.452;2024-03-22T16:55:55;8.40;;;7.40;;
19645;SDS011;9971;52.446;13.452;2024-03-22T17:01:01;8.70;;;7.40;;
19645;SDS011;9971;52.446;13.452;2024-03-22T17:05:59;7.10;;;6.40;;
19645;SDS011;9971;52.446;13.452;2024-03-22T17:11:01;8.80;;;7.90;;
19645;SDS011;9971;52.446;13.452;2024-03-22T17:16:04;8.53;;;7.72;;
19645;SDS011;9971;52.446;13.452;2024-03-22T17:21:06;6.40;;;5.80;;
19645;SDS011;9971;52.446;13.452;2024-03-22T17:26:09;7.33;;;6.72;;
19645;SDS011;9971;52.446;13.452;2024-03-22T17:31:11;7.50;;;6.80;;
19645;SDS011;9971;52.446;13.452;2024-03-22T17:36:13;9.40;;;8.10;;
19645;SDS011;9971;52.446;13.452;2024-03-22T17:41:16;9.60;;;8.55;;
19645;SDS011;9971;52.446;13.452;2024-03-22T17:46:18;9.00;;;8.18;;
19645;SDS011;9971;52.446;13.452;2024-03-22T17:51:20;9.13;;;8.33;;
19645;SDS011;9971;52.446;13.452;2024-03-22T17:56:23;8.13;;;7.33;;
19645;SDS011;9971;52.446;13.452;2024-03-22T18:01:25;9.13;;;8.23;;
19645;SDS011;9971;52.446;13.452;2024-03-22T18:06:28;9.40;;;8.05;;
19645;SDS011;9971;52.446;13.452;2024-03-22T18:11:30;8.53;;;7.70;;
19645;SDS011;9971;52.446;13.452;2024-03-22T18:16:32;8.80;;;8.00;;
19645;SDS011;9971;52.446;13.452;2024-03-22T18:21:35;7.37;;;6.72;;
19645;SDS011;9971;52.446;13.452;2024-03-22T18:48:02;9.43;;;8.50;;
19645;SDS011;9971;52.446;13.452;2024-03-22T18:53:04;9.43;;;8.53;;
19645;SDS011;9971;52.446;13.452;2024-03-22T18:58:07;8.40;;;7.60;;
19645;SDS011;9971;52.446;13.452;2024-03-22T19:03:09;8.93;;;8.03;;
19645;SDS011;9971;52.446;13.452;2024-03-22T19:08:11;8.58;;;7.67;;
19645;SDS011;9971;52.446;13.452;2024-03-22T19:13:14;7.65;;;6.85;;
19645;SDS011;9971;52.446;13.452;2024-03-22T19:18:16;10.63;;;9.63;;
19645;SDS011;9971;52.446;13.452;2024-03-22T19:23:19;8.65;;;7.80;;
19645;SDS011;9971;52.446;13.452;2024-03-22T19:28:25;10.23;;;9.33;;
19645;SDS011;9971;52.446;13.452;2024-03-22T19:33:42;9.13;;;8.23;;
19645;SDS011;9971;52.446;13.452;2024-03-22T19:38:46;8.57;;;7.77;;
19645;SDS011;9971;52.446;13.452;2024-03-22T19:43:52;8.38;;;7.50;;
19645;SDS011;9971;52.446;13.452;2024-03-22T19:48:56;8.67;;;7.87;;
19645;SDS011;9971;52.446;13.452;2024-03-22T19:54:03;10.00;;;9.07;;
19645;SDS011;9971;52.446;13.452;2024-03-22T19:59:06;8.80;;;7.97;;
19645;SDS011;9971;52.446;13.452;2024-03-22T20:04:08;8.48;;;7.62;;
19645;SDS011;9971;52.446;13.452;2024-03-22T20:09:11;10.00;;;7.23;;
19645;SDS011;9971;52.446;13.452;2024-03-22T20:14:13;6.92;;;6.33;;
19645;SDS011;9971;52.446;13.452;2024-03-22T20:19:16;9.28;;;8.48;;
19645;SDS011;9971;52.446;13.452;2024-03-22T20:24:19;8.40;;;7.70;;
19645;SDS011;9971;52.446;13.452;2024-03-22T20:29:21;7.95;;;7.22;;
19645;SDS011;9971;52.446;13.452;2024-03-22T20:34:27;6.97;;;6.37;;
